createdAt,value
2018-08-11T00:02:07.961Z,18.20
2018-08-11T00:04:39.322Z,18.20
2018-08-11T00:07:08.470Z,18.20
2018-08-11T00:09:37.942Z,18.20
2018-08-11T00:12:08.156Z,18.10
2018-08-11T00:14:37.764Z,18.10
2018-08-11T00:17:06.156Z,18.10
2018-08-11T00:30:17.100Z,18.00
2018-08-11T00:33:21.334Z,18.00
2018-08-11T00:35:51.232Z,18.00
2018-08-11T00:38:21.019Z,17.90
2018-08-11T00:40:52.536Z,17.90
2018-08-11T00:43:22.813Z,17.90
2018-08-11T00:45:53.705Z,17.90
2018-08-11T00:50:57.060Z,17.90
2018-08-11T00:53:27.171Z,17.90
2018-08-11T00:55:58.551Z,17.90
2018-08-11T00:58:34.947Z,17.80
2018-08-11T01:01:07.965Z,17.80
2018-08-11T01:03:42.996Z,17.80
2018-08-11T01:06:12.306Z,17.80
2018-08-11T01:08:41.792Z,17.70
2018-08-11T01:11:11.180Z,17.70
2018-08-11T01:13:40.525Z,17.70
2018-08-11T01:18:44.172Z,17.70
2018-08-11T01:21:16.736Z,17.70
2018-08-11T01:23:50.699Z,17.70
2018-08-11T01:26:19.765Z,17.60
2018-08-11T01:28:48.521Z,17.70
2018-08-11T01:31:21.270Z,17.60
2018-08-11T01:33:50.510Z,17.60
2018-08-11T01:36:18.907Z,17.60
2018-08-11T01:38:48.299Z,17.60
2018-08-11T01:41:16.897Z,17.60
2018-08-11T01:43:46.664Z,17.60
2018-08-11T01:46:15.715Z,17.60
2018-08-11T01:48:44.523Z,17.60
2018-08-11T01:51:13.019Z,17.60
2018-08-11T01:53:41.522Z,17.50
2018-08-11T01:56:10.052Z,17.50
2018-08-11T01:58:39.085Z,17.50
2018-08-11T02:01:07.905Z,17.50
2018-08-11T02:03:36.425Z,17.50
2018-08-11T02:06:04.930Z,17.50
2018-08-11T02:08:33.943Z,17.50
2018-08-11T02:11:02.281Z,17.50
2018-08-11T02:13:31.128Z,17.50
2018-08-11T02:16:01.737Z,17.50
2018-08-11T02:18:30.263Z,17.50
2018-08-11T02:21:02.105Z,17.40
2018-08-11T02:23:31.965Z,17.50
2018-08-11T02:26:01.954Z,17.50
2018-08-11T02:28:30.973Z,17.50
2018-08-11T02:31:01.921Z,17.50
2018-08-11T02:33:30.458Z,17.50
2018-08-11T02:36:00.344Z,17.50
2018-08-11T02:38:30.441Z,17.50
2018-08-11T02:40:59.623Z,17.50
2018-08-11T02:43:28.734Z,17.50
2018-08-11T02:45:57.230Z,17.50
2018-08-11T02:48:26.075Z,17.50
2018-08-11T02:50:55.306Z,17.60
2018-08-11T02:53:23.923Z,17.50
2018-08-11T02:55:52.302Z,17.50
2018-08-11T02:58:21.406Z,17.60
2018-08-11T03:00:50.204Z,17.60
2018-08-11T03:03:18.822Z,17.60
2018-08-11T03:05:50.372Z,17.60
2018-08-11T03:08:26.286Z,17.60
2018-08-11T03:11:05.098Z,17.60
2018-08-11T03:13:33.451Z,17.60
2018-08-11T03:16:01.952Z,17.60
2018-08-11T03:18:31.845Z,17.60
2018-08-11T03:21:00.917Z,17.60
2018-08-11T03:23:30.136Z,17.50
2018-08-11T03:25:59.308Z,17.50
2018-08-11T03:28:29.036Z,17.50
2018-08-11T03:30:57.659Z,17.50
2018-08-11T03:33:26.308Z,17.50
2018-08-11T03:35:55.448Z,17.50
2018-08-11T03:38:24.431Z,17.50
2018-08-11T03:40:53.007Z,17.40
2018-08-11T03:43:21.535Z,17.40
2018-08-11T03:45:50.811Z,17.40
2018-08-11T03:48:19.406Z,17.40
2018-08-11T03:50:49.929Z,17.30
2018-08-11T03:53:19.236Z,17.30
2018-08-11T03:55:48.615Z,17.30
2018-08-11T03:58:17.633Z,17.30
2018-08-11T04:00:46.218Z,17.30
2018-08-11T04:03:14.755Z,17.30
2018-08-11T04:05:43.089Z,17.30
2018-08-11T04:08:11.430Z,17.30
2018-08-11T04:10:39.927Z,17.30
2018-08-11T04:13:08.539Z,17.30
2018-08-11T04:15:37.714Z,17.30
2018-08-11T04:18:06.110Z,17.30
2018-08-11T04:20:34.728Z,17.30
2018-08-11T04:23:03.846Z,17.30
2018-08-11T04:25:32.862Z,17.30
2018-08-11T04:28:01.388Z,17.30
2018-08-11T04:30:29.746Z,17.30
2018-08-11T04:32:58.006Z,17.30
2018-08-11T04:35:26.376Z,17.30
2018-08-11T04:37:56.706Z,17.20
2018-08-11T04:40:25.386Z,17.30
2018-08-11T04:42:57.328Z,17.30
2018-08-11T04:45:26.638Z,17.30
2018-08-11T04:47:55.036Z,17.30
2018-08-11T04:50:24.488Z,17.30
2018-08-11T04:52:53.680Z,17.30
2018-08-11T04:55:22.499Z,17.40
2018-08-11T04:57:51.330Z,17.40
2018-08-11T05:00:20.178Z,17.40
2018-08-11T05:02:49.233Z,17.50
2018-08-11T05:05:18.223Z,17.50
2018-08-11T05:07:46.888Z,17.60
2018-08-11T05:10:16.815Z,17.70
2018-08-11T05:12:46.138Z,17.70
2018-08-11T05:15:14.879Z,17.80
2018-08-11T05:17:43.787Z,17.90
2018-08-11T05:20:12.127Z,18.00
2018-08-11T05:22:40.854Z,18.10
2018-08-11T05:25:09.988Z,18.30
2018-08-11T05:27:38.537Z,18.40
2018-08-11T05:30:08.443Z,18.50
2018-08-11T05:32:37.767Z,18.60
2018-08-11T05:35:08.371Z,18.70
2018-08-11T05:37:42.930Z,18.80
2018-08-11T05:40:11.790Z,18.90
2018-08-11T05:42:41.027Z,19.00
2018-08-11T05:45:09.718Z,19.10
2018-08-11T05:47:38.553Z,19.30
2018-08-11T05:50:07.427Z,19.30
2018-08-11T05:52:40.603Z,19.50
2018-08-11T05:55:09.031Z,19.60
2018-08-11T05:57:39.425Z,19.80
2018-08-11T06:00:09.059Z,19.90
2018-08-11T06:02:38.079Z,20.00
2018-08-11T06:05:06.759Z,20.10
2018-08-11T06:07:35.132Z,20.20
2018-08-11T06:10:04.096Z,20.30
2018-08-11T06:12:33.803Z,20.40
2018-08-11T06:15:07.407Z,20.50
2018-08-11T06:17:35.744Z,20.60
2018-08-11T06:20:05.736Z,20.70
2018-08-11T06:22:34.586Z,20.80
2018-08-11T06:25:12.176Z,20.90
2018-08-11T06:27:41.318Z,20.90
2018-08-11T06:30:10.487Z,20.90
2018-08-11T06:32:39.299Z,21.00
2018-08-11T06:35:12.291Z,21.00
2018-08-11T06:37:42.078Z,21.10
2018-08-11T06:40:11.830Z,21.10
2018-08-11T06:42:40.103Z,21.10
2018-08-11T06:45:14.373Z,21.10
2018-08-11T06:47:43.132Z,21.20
2018-08-11T06:50:11.729Z,21.40
2018-08-11T06:52:40.154Z,21.40
2018-08-11T06:55:08.755Z,21.50
2018-08-11T06:57:38.246Z,21.50
2018-08-11T07:00:13.097Z,21.60
2018-08-11T07:02:42.563Z,21.70
2018-08-11T07:05:10.968Z,21.90
2018-08-11T07:07:39.343Z,22.10
2018-08-11T07:10:10.527Z,22.20
2018-08-11T07:12:38.906Z,22.20
2018-08-11T07:15:07.930Z,22.20
2018-08-11T07:17:36.862Z,22.20
2018-08-11T07:20:05.230Z,22.10
2018-08-11T07:22:33.857Z,22.00
2018-08-11T07:25:02.811Z,22.00
2018-08-11T07:27:31.199Z,22.00
2018-08-11T07:30:00.829Z,22.10
2018-08-11T07:32:30.047Z,22.10
2018-08-11T07:34:59.995Z,22.10
2018-08-11T07:37:29.019Z,22.10
2018-08-11T07:39:58.319Z,22.20
2018-08-11T07:42:26.975Z,22.30
2018-08-11T07:44:55.474Z,22.40
2018-08-11T07:47:24.212Z,22.60
2018-08-11T07:49:52.850Z,22.60
2018-08-11T07:52:22.468Z,22.60
2018-08-11T07:54:50.966Z,22.70
2018-08-11T07:57:19.498Z,22.70
2018-08-11T07:59:48.041Z,22.80
2018-08-11T08:02:16.551Z,22.90
2018-08-11T08:04:44.883Z,23.00
2018-08-11T08:07:13.562Z,23.00
2018-08-11T08:09:49.714Z,23.10
2018-08-11T08:12:18.042Z,23.20
2018-08-11T08:14:47.384Z,23.30
2018-08-11T08:17:16.703Z,23.40
2018-08-11T08:19:45.091Z,23.40
2018-08-11T08:22:15.194Z,23.50
2018-08-11T08:24:45.955Z,23.60
2018-08-11T08:27:14.372Z,23.70
2018-08-11T08:29:54.981Z,23.70
2018-08-11T08:32:25.339Z,23.70
2018-08-11T08:34:54.798Z,23.60
2018-08-11T08:37:28.112Z,23.70
2018-08-11T08:40:05.510Z,23.60
2018-08-11T08:42:35.554Z,23.60
2018-08-11T08:45:13.584Z,23.50
2018-08-11T08:47:42.923Z,23.50
2018-08-11T08:50:13.053Z,23.40
2018-08-11T08:52:43.658Z,23.40
2018-08-11T08:55:17.293Z,23.40
2018-08-11T08:57:49.697Z,23.40
2018-08-11T09:00:19.276Z,23.50
2018-08-11T09:02:50.839Z,23.50
2018-08-11T09:05:26.046Z,23.40
2018-08-11T09:07:57.462Z,23.30
2018-08-11T09:10:36.356Z,23.30
2018-08-11T09:13:11.099Z,23.30
2018-08-11T09:15:44.098Z,23.40
2018-08-11T09:18:13.253Z,23.50
2018-08-11T09:23:37.045Z,23.60
2018-08-11T09:31:55.415Z,23.90
2018-08-11T09:34:27.885Z,23.90
2018-08-11T09:37:00.964Z,23.80
2018-08-11T09:39:41.288Z,23.70
2018-08-11T09:42:15.822Z,23.60
2018-08-11T09:44:46.997Z,23.50
2018-08-11T09:50:18.965Z,23.40
2018-08-11T09:52:51.398Z,23.50
2018-08-11T09:55:25.735Z,23.30
2018-08-11T09:58:04.765Z,23.10
2018-08-11T10:00:40.697Z,23.10
2018-08-11T10:03:16.271Z,23.10
2018-08-11T10:08:27.038Z,23.10
2018-08-11T10:10:55.515Z,23.20
2018-08-11T10:13:24.818Z,23.20
2018-08-11T10:15:55.790Z,23.30
2018-08-11T10:18:25.863Z,23.30
2018-08-11T10:20:54.754Z,23.30
2018-08-11T10:23:24.481Z,23.20
2018-08-11T10:25:55.426Z,23.20
2018-08-11T10:28:23.975Z,23.30
2018-08-11T10:30:53.548Z,23.40
2018-08-11T10:33:23.163Z,23.40
2018-08-11T10:35:52.764Z,23.40
2018-08-11T10:38:22.603Z,23.30
2018-08-11T10:45:06.839Z,23.00
2018-08-11T10:47:36.780Z,22.90
2018-08-11T10:50:06.715Z,22.80
2018-08-11T10:55:10.480Z,23.00
2018-08-11T10:57:39.351Z,23.00
2018-08-11T11:00:10.710Z,23.00
2018-08-11T11:02:40.096Z,23.00
2018-08-11T11:05:16.038Z,23.20
2018-08-11T11:07:52.835Z,23.20
2018-08-11T11:10:26.167Z,23.30
2018-08-11T11:12:54.716Z,23.30
2018-08-11T11:15:24.240Z,23.20
2018-08-11T11:17:55.855Z,23.20
2018-08-11T11:20:31.166Z,23.10
2018-08-11T11:23:00.807Z,23.00
2018-08-11T11:25:30.378Z,22.90
2018-08-11T11:28:05.264Z,23.00
2018-08-11T11:30:41.647Z,23.00
2018-08-11T11:33:17.763Z,23.00
2018-08-11T11:36:06.931Z,22.90
2018-08-11T11:39:06.474Z,23.00
2018-08-11T11:41:40.264Z,23.00
2018-08-11T11:44:17.503Z,22.90
2018-08-11T11:46:56.253Z,22.70
2018-08-11T11:58:01.719Z,22.30
2018-08-11T12:01:10.227Z,22.30
2018-08-11T12:06:27.089Z,22.20
2018-08-11T12:09:06.924Z,22.20
2018-08-11T12:11:38.035Z,22.20
2018-08-11T12:14:07.005Z,22.10
2018-08-11T12:16:38.542Z,21.90
2018-08-11T12:19:21.519Z,21.90
2018-08-11T12:24:28.107Z,21.50
2018-08-11T12:26:57.474Z,21.40
2018-08-11T12:29:27.183Z,21.50
2018-08-11T12:32:00.313Z,21.50
2018-08-11T12:34:33.530Z,21.50
2018-08-11T12:37:04.897Z,21.50
2018-08-11T12:39:43.948Z,21.70
2018-08-11T12:42:24.680Z,21.90
2018-08-11T12:44:53.627Z,22.10
2018-08-11T12:47:22.991Z,22.30
2018-08-11T12:50:04.864Z,22.20
2018-08-11T12:52:35.689Z,22.40
2018-08-11T12:55:10.715Z,22.50
2018-08-11T12:57:53.054Z,22.40
2018-08-11T13:00:41.567Z,22.30
2018-08-11T13:03:12.016Z,22.20
2018-08-11T13:05:43.337Z,22.30
2018-08-11T13:08:14.118Z,22.40
2018-08-11T13:10:49.220Z,22.30
2018-08-11T13:13:18.334Z,22.20
2018-08-11T13:15:49.615Z,22.40
2018-08-11T13:18:26.630Z,22.50
2018-08-11T13:20:58.089Z,22.50
2018-08-11T13:23:29.953Z,22.60
2018-08-11T13:25:59.400Z,22.60
2018-08-11T13:31:28.789Z,22.20
2018-08-11T13:34:04.984Z,22.00
2018-08-11T13:36:34.136Z,21.90
2018-08-11T13:39:11.386Z,21.90
2018-08-11T13:41:48.697Z,21.80
2018-08-11T13:44:27.054Z,21.90
2018-08-11T13:46:57.203Z,22.00
2018-08-11T13:49:26.715Z,22.20
2018-08-11T13:54:50.198Z,22.20
2018-08-11T13:57:19.503Z,22.10
2018-08-11T13:59:50.936Z,21.80
2018-08-11T14:02:19.907Z,21.00
2018-08-11T14:04:50.338Z,19.60
2018-08-11T14:07:20.469Z,18.80
2018-08-11T14:09:54.316Z,18.50
2018-08-11T14:12:24.103Z,18.40
2018-08-11T14:17:34.313Z,18.20
2018-08-11T14:20:03.923Z,18.00
2018-08-11T14:22:35.184Z,17.90
2018-08-11T14:25:07.775Z,18.00
2018-08-11T14:27:44.322Z,18.00
2018-08-11T14:30:14.163Z,17.90
2018-08-11T14:32:43.638Z,17.80
2018-08-11T14:35:13.157Z,17.70
2018-08-11T14:37:46.554Z,17.70
2018-08-11T14:40:20.142Z,17.80
2018-08-11T14:42:51.597Z,18.00
2018-08-11T14:45:22.759Z,18.10
2018-08-11T14:48:03.464Z,18.20
2018-08-11T14:50:46.367Z,18.40
2018-08-11T14:58:42.422Z,18.80
2018-08-11T15:07:04.288Z,19.60
2018-08-11T15:09:39.702Z,19.80
2018-08-11T15:21:09.351Z,20.60
2018-08-11T15:37:39.659Z,20.00
2018-08-11T15:43:04.703Z,19.80
2018-08-11T15:54:04.646Z,19.60
2018-08-11T16:04:59.767Z,19.60
2018-08-11T16:07:44.639Z,19.50
2018-08-11T17:06:45.463Z,18.20
2018-08-11T17:26:21.575Z,17.90
2018-08-11T17:29:03.551Z,17.90
2018-08-11T17:31:48.454Z,17.90
2018-08-11T17:34:28.480Z,17.80
2018-08-11T17:57:19.463Z,17.70
2018-08-11T17:59:56.583Z,17.70
2018-08-11T18:02:29.530Z,17.60
2018-08-11T18:05:04.543Z,17.60
2018-08-11T18:07:34.998Z,17.50
2018-08-11T18:10:09.712Z,17.40
2018-08-11T18:12:52.806Z,17.30
2018-08-11T18:18:05.830Z,17.20
2018-08-11T18:20:37.972Z,17.10
2018-08-11T18:23:09.651Z,17.10
2018-08-11T18:25:53.007Z,17.00
2018-08-11T18:28:40.280Z,16.90
2018-08-11T18:31:14.392Z,16.70
2018-08-11T18:33:46.098Z,16.30
2018-08-11T18:36:18.124Z,15.80
2018-08-11T18:38:55.116Z,15.40
2018-08-11T18:41:36.738Z,15.20
2018-08-11T18:44:20.044Z,15.10
2018-08-11T18:46:55.189Z,15.10
2018-08-11T18:49:45.890Z,15.10
2018-08-11T18:52:18.777Z,15.10
2018-08-11T18:54:48.149Z,15.20
2018-08-11T18:57:18.111Z,15.20
2018-08-11T18:59:55.166Z,15.20
2018-08-11T19:05:13.069Z,15.10
2018-08-11T19:07:46.725Z,15.10
2018-08-11T19:10:45.201Z,15.10
2018-08-11T19:13:16.554Z,15.00
2018-08-11T19:15:56.334Z,14.90
2018-08-11T19:18:28.836Z,14.70
2018-08-11T19:24:30.710Z,14.70
2018-08-11T19:29:39.676Z,14.50
2018-08-11T19:32:14.095Z,14.50
2018-08-11T19:34:48.184Z,14.40
2018-08-11T19:37:21.616Z,14.40
2018-08-11T19:40:08.695Z,14.30
2018-08-11T19:42:38.338Z,14.30
2018-08-11T19:45:11.447Z,14.30
2018-08-11T19:47:47.407Z,14.30
2018-08-11T19:58:39.123Z,14.20
2018-08-11T20:03:55.505Z,14.30
2018-08-11T20:11:53.019Z,14.50
2018-08-11T20:23:54.338Z,14.80
2018-08-11T20:36:46.784Z,14.80
2018-08-11T20:39:28.513Z,14.80
2018-08-11T20:48:39.532Z,14.80
2018-08-11T21:05:08.827Z,14.80
2018-08-11T21:07:50.524Z,14.90
2018-08-11T21:10:36.244Z,14.90
2018-08-11T21:13:14.350Z,15.00
2018-08-11T21:15:49.502Z,15.00
2018-08-11T21:18:27.094Z,15.00
2018-08-11T21:21:03.375Z,15.00
2018-08-11T21:26:21.551Z,15.00
2018-08-11T21:29:03.006Z,15.10
2018-08-11T21:31:44.932Z,15.20
2018-08-11T21:34:17.713Z,15.20
2018-08-11T21:36:52.137Z,15.30
2018-08-11T21:39:24.839Z,15.30
2018-08-11T21:41:56.596Z,15.30
2018-08-11T21:44:39.529Z,15.40
2018-08-11T21:47:09.031Z,15.30
2018-08-11T21:49:39.131Z,15.30
2018-08-11T21:52:13.338Z,15.40
2018-08-11T21:54:43.787Z,15.40
2018-08-11T21:57:17.771Z,15.40
2018-08-11T21:59:46.540Z,15.40
2018-08-11T22:02:17.601Z,15.40
2018-08-11T22:04:47.473Z,15.40
2018-08-11T22:07:21.153Z,15.40
2018-08-11T22:09:50.247Z,15.40
2018-08-11T22:12:23.831Z,15.40
2018-08-11T22:14:57.703Z,15.50
2018-08-11T22:17:26.608Z,15.50
2018-08-11T22:19:55.331Z,15.50
2018-08-11T22:22:33.947Z,15.50
2018-08-11T22:25:03.697Z,15.60
2018-08-11T22:27:38.051Z,15.60
2018-08-11T22:30:07.314Z,15.60
2018-08-11T22:32:37.574Z,15.70
2018-08-11T22:35:08.437Z,15.60
2018-08-11T22:37:37.641Z,15.60
2018-08-11T22:40:07.709Z,15.60
2018-08-11T22:42:47.013Z,15.60
2018-08-11T22:45:16.499Z,15.60
2018-08-11T22:47:44.874Z,15.60
2018-08-11T22:50:15.075Z,15.60
2018-08-11T22:52:43.338Z,15.60
2018-08-11T22:55:12.152Z,15.60
2018-08-11T22:57:41.114Z,15.50
2018-08-11T23:00:15.331Z,15.50
2018-08-11T23:02:44.306Z,15.50
2018-08-11T23:05:13.619Z,15.50
2018-08-11T23:07:43.150Z,15.50
2018-08-11T23:10:22.088Z,15.50
2018-08-11T23:12:51.297Z,15.50
2018-08-11T23:15:19.943Z,15.50
2018-08-11T23:20:22.863Z,15.50
2018-08-11T23:22:51.479Z,15.40
2018-08-11T23:25:22.895Z,15.40
2018-08-11T23:27:51.138Z,15.40
2018-08-11T23:30:20.900Z,15.40
2018-08-11T23:32:49.162Z,15.40
2018-08-11T23:35:22.048Z,15.40
2018-08-11T23:37:54.911Z,15.50
2018-08-11T23:40:24.125Z,15.50
2018-08-11T23:42:52.954Z,15.40
2018-08-11T23:45:21.512Z,15.40
2018-08-11T23:47:50.524Z,15.40
2018-08-11T23:50:19.868Z,15.40
2018-08-11T23:52:48.833Z,15.40
2018-08-11T23:55:17.539Z,15.40
2018-08-11T23:57:45.868Z,15.40
